sensor_id;sensor_type;location;lat;lon;timestamp;pressure;altitude;pressure_sealevel;temperature;humidity
32733;BME280;11867;51.198;11.966;2022-12-08T00:04:09;99867.44;;;3.81;91.70
32733;BME280;11867;51.198;11.966;2022-12-08T00:09:12;99850.66;;;4.18;88.10
32733;BME280;11867;51.198;11.966;2022-12-08T00:14:27;99852.09;;;3.65;89.60
32733;BME280;11867;51.198;11.966;2022-12-08T00:19:30;99831.81;;;4.23;87.66
32733;BME280;11867;51.198;11.966;2022-12-08T00:24:33;99831.34;;;4.27;86.87
32733;BME280;11867;51.198;11.966;2022-12-08T00:29:37;99828.19;;;4.35;85.80
32733;BME280;11867;51.198;11.966;2022-12-08T00:34:40;99830.13;;;3.95;86.83
32733;BME280;11867;51.198;11.966;2022-12-08T00:39:42;99823.72;;;4.23;86.35
32733;BME280;11867;51.198;11.966;2022-12-08T00:44:46;99825.59;;;4.01;85.94
32733;BME280;11867;51.198;11.966;2022-12-08T00:49:49;99821.09;;;4.51;84.43
32733;BME280;11867;51.198;11.966;2022-12-08T00:54:51;99817.56;;;4.50;84.72
32733;BME280;11867;51.198;11.966;2022-12-08T00:59:55;99819.25;;;4.83;83.84
32733;BME280;11867;51.198;11.966;2022-12-08T01:04:57;99808.63;;;4.72;84.61
32733;BME280;11867;51.198;11.966;2022-12-08T01:10:00;99806.16;;;4.43;85.00
32733;BME280;11867;51.198;11.966;2022-12-08T01:15:05;99806.41;;;4.69;83.94
32733;BME280;11867;51.198;11.966;2022-12-08T01:20:07;99821.25;;;3.78;87.80
32733;BME280;11867;51.198;11.966;2022-12-08T01:25:10;99816.94;;;3.99;87.38
32733;BME280;11867;51.198;11.966;2022-12-08T01:30:14;99814.00;;;4.00;87.17
32733;BME280;11867;51.198;11.966;2022-12-08T01:35:16;99808.75;;;4.11;86.11
32733;BME280;11867;51.198;11.966;2022-12-08T01:40:19;99815.28;;;3.93;86.81
32733;BME280;11867;51.198;11.966;2022-12-08T01:45:23;99808.44;;;4.29;86.19
32733;BME280;11867;51.198;11.966;2022-12-08T01:50:27;99802.66;;;4.70;85.38
32733;BME280;11867;51.198;11.966;2022-12-08T01:55:31;99802.53;;;3.88;88.35
32733;BME280;11867;51.198;11.966;2022-12-08T02:00:36;99775.69;;;3.98;88.48
32733;BME280;11867;51.198;11.966;2022-12-08T02:05:39;99786.34;;;3.49;91.06
32733;BME280;11867;51.198;11.966;2022-12-08T02:10:42;99777.81;;;4.18;88.74
32733;BME280;11867;51.198;11.966;2022-12-08T02:15:48;99779.38;;;4.63;85.51
32733;BME280;11867;51.198;11.966;2022-12-08T02:20:55;99774.97;;;4.30;87.59
32733;BME280;11867;51.198;11.966;2022-12-08T02:26:05;99782.31;;;4.35;87.07
32733;BME280;11867;51.198;11.966;2022-12-08T02:31:18;99770.53;;;3.97;89.57
32733;BME280;11867;51.198;11.966;2022-12-08T02:36:23;99778.00;;;4.12;89.45
32733;BME280;11867;51.198;11.966;2022-12-08T02:41:29;99776.03;;;4.07;88.87
32733;BME280;11867;51.198;11.966;2022-12-08T02:46:34;99770.22;;;4.15;88.77
32733;BME280;11867;51.198;11.966;2022-12-08T02:51:40;99760.53;;;4.41;87.38
32733;BME280;11867;51.198;11.966;2022-12-08T02:56:49;99757.88;;;4.74;87.52
32733;BME280;11867;51.198;11.966;2022-12-08T03:02:00;99754.16;;;4.80;85.74
32733;BME280;11867;51.198;11.966;2022-12-08T03:07:10;99754.81;;;4.97;85.28
32733;BME280;11867;51.198;11.966;2022-12-08T03:12:17;99750.66;;;4.84;84.71
32733;BME280;11867;51.198;11.966;2022-12-08T03:17:22;99744.38;;;4.74;84.89
32733;BME280;11867;51.198;11.966;2022-12-08T03:22:27;99733.16;;;4.60;85.53
32733;BME280;11867;51.198;11.966;2022-12-08T03:27:30;99737.59;;;4.17;87.28
32733;BME280;11867;51.198;11.966;2022-12-08T03:32:34;99731.50;;;4.27;86.98
32733;BME280;11867;51.198;11.966;2022-12-08T03:37:39;99730.06;;;3.97;88.64
32733;BME280;11867;51.198;11.966;2022-12-08T03:42:42;99726.72;;;3.84;89.26
32733;BME280;11867;51.198;11.966;2022-12-08T03:47:45;99730.28;;;3.68;89.37
32733;BME280;11867;51.198;11.966;2022-12-08T03:52:49;99718.78;;;3.78;89.54
32733;BME280;11867;51.198;11.966;2022-12-08T03:57:51;99719.72;;;3.44;90.99
32733;BME280;11867;51.198;11.966;2022-12-08T04:02:53;99714.38;;;3.28;91.97
32733;BME280;11867;51.198;11.966;2022-12-08T04:07:57;99699.22;;;3.66;92.98
32733;BME280;11867;51.198;11.966;2022-12-08T04:13:01;99696.44;;;3.16;92.35
32733;BME280;11867;51.198;11.966;2022-12-08T04:18:03;99694.09;;;3.42;91.67
32733;BME280;11867;51.198;11.966;2022-12-08T04:23:07;99687.16;;;3.68;89.55
32733;BME280;11867;51.198;11.966;2022-12-08T04:28:12;99681.59;;;4.29;87.18
32733;BME280;11867;51.198;11.966;2022-12-08T04:33:15;99674.91;;;4.37;86.51
32733;BME280;11867;51.198;11.966;2022-12-08T04:38:19;99677.09;;;4.13;87.38
32733;BME280;11867;51.198;11.966;2022-12-08T04:43:22;99681.91;;;3.61;89.99
32733;BME280;11867;51.198;11.966;2022-12-08T04:48:24;99678.00;;;3.96;88.87
32733;BME280;11867;51.198;11.966;2022-12-08T04:53:28;99682.06;;;3.99;88.16
32733;BME280;11867;51.198;11.966;2022-12-08T04:58:30;99672.47;;;3.59;90.57
32733;BME280;11867;51.198;11.966;2022-12-08T05:03:33;99669.84;;;3.64;90.55
32733;BME280;11867;51.198;11.966;2022-12-08T05:08:37;99676.09;;;3.48;90.62
32733;BME280;11867;51.198;11.966;2022-12-08T05:13:39;99682.75;;;2.67;94.39
32733;BME280;11867;51.198;11.966;2022-12-08T05:18:42;99691.72;;;2.73;95.11
32733;BME280;11867;51.198;11.966;2022-12-08T05:23:46;99688.50;;;3.10;93.07
32733;BME280;11867;51.198;11.966;2022-12-08T05:28:49;99681.84;;;3.34;93.12
32733;BME280;11867;51.198;11.966;2022-12-08T05:33:51;99687.91;;;2.86;93.84
32733;BME280;11867;51.198;11.966;2022-12-08T05:39:01;99685.53;;;2.55;96.89
32733;BME280;11867;51.198;11.966;2022-12-08T05:44:03;99684.22;;;2.58;96.86
32733;BME280;11867;51.198;11.966;2022-12-08T05:49:06;99674.91;;;2.32;96.61
32733;BME280;11867;51.198;11.966;2022-12-08T05:54:11;99674.34;;;2.47;97.68
32733;BME280;11867;51.198;11.966;2022-12-08T05:59:14;99665.38;;;2.75;95.09
32733;BME280;11867;51.198;11.966;2022-12-08T06:04:17;99671.63;;;3.14;92.80
32733;BME280;11867;51.198;11.966;2022-12-08T06:09:20;99670.72;;;3.09;93.13
32733;BME280;11867;51.198;11.966;2022-12-08T06:14:23;99663.25;;;2.77;93.18
32733;BME280;11867;51.198;11.966;2022-12-08T06:19:26;99658.59;;;3.28;91.53
32733;BME280;11867;51.198;11.966;2022-12-08T06:24:30;99668.47;;;3.39;89.86
32733;BME280;11867;51.198;11.966;2022-12-08T06:29:32;99666.28;;;2.63;94.21
32733;BME280;11867;51.198;11.966;2022-12-08T06:34:35;99661.47;;;2.32;96.03
32733;BME280;11867;51.198;11.966;2022-12-08T06:39:39;99670.44;;;2.54;96.18
32733;BME280;11867;51.198;11.966;2022-12-08T06:44:42;99667.50;;;2.73;94.71
32733;BME280;11867;51.198;11.966;2022-12-08T06:49:44;99667.22;;;3.08;92.85
32733;BME280;11867;51.198;11.966;2022-12-08T06:54:48;99664.72;;;2.68;95.12
32733;BME280;11867;51.198;11.966;2022-12-08T06:59:51;99659.69;;;3.27;92.09
32733;BME280;11867;51.198;11.966;2022-12-08T07:04:53;99663.28;;;3.16;90.33
32733;BME280;11867;51.198;11.966;2022-12-08T07:09:57;99669.41;;;3.11;90.87
32733;BME280;11867;51.198;11.966;2022-12-08T07:14:59;99679.09;;;3.73;88.70
32733;BME280;11867;51.198;11.966;2022-12-08T07:20:02;99689.38;;;3.32;89.05
32733;BME280;11867;51.198;11.966;2022-12-08T07:25:07;99679.00;;;2.51;94.37
32733;BME280;11867;51.198;11.966;2022-12-08T07:30:09;99666.59;;;2.84;93.46
32733;BME280;11867;51.198;11.966;2022-12-08T07:35:12;99673.03;;;3.61;90.49
32733;BME280;11867;51.198;11.966;2022-12-08T07:40:16;99668.06;;;2.92;91.70
32733;BME280;11867;51.198;11.966;2022-12-08T07:45:18;99665.34;;;3.09;93.44
32733;BME280;11867;51.198;11.966;2022-12-08T07:50:21;99650.19;;;3.91;88.71
32733;BME280;11867;51.198;11.966;2022-12-08T07:55:25;99657.44;;;4.17;86.99
32733;BME280;11867;51.198;11.966;2022-12-08T08:00:27;99668.31;;;3.51;88.83
32733;BME280;11867;51.198;11.966;2022-12-08T08:05:30;99667.41;;;2.85;93.22
32733;BME280;11867;51.198;11.966;2022-12-08T08:10:33;99671.31;;;3.11;91.05
32733;BME280;11867;51.198;11.966;2022-12-08T08:15:36;99660.59;;;4.09;87.53
32733;BME280;11867;51.198;11.966;2022-12-08T08:20:39;99664.78;;;4.49;85.67
32733;BME280;11867;51.198;11.966;2022-12-08T08:25:42;99662.75;;;4.67;85.75
32733;BME280;11867;51.198;11.966;2022-12-08T08:30:45;99666.75;;;4.32;87.15
32733;BME280;11867;51.198;11.966;2022-12-08T08:35:48;99669.22;;;4.06;87.66
32733;BME280;11867;51.198;11.966;2022-12-08T08:40:52;99666.19;;;4.30;87.10
32733;BME280;11867;51.198;11.966;2022-12-08T08:45:58;99660.59;;;4.69;85.76
32733;BME280;11867;51.198;11.966;2022-12-08T08:51:05;99659.97;;;5.41;82.79
32733;BME280;11867;51.198;11.966;2022-12-08T08:56:10;99659.00;;;5.10;82.77
32733;BME280;11867;51.198;11.966;2022-12-08T09:01:14;99654.53;;;4.89;85.66
32733;BME280;11867;51.198;11.966;2022-12-08T09:06:17;99657.19;;;5.21;83.11
32733;BME280;11867;51.198;11.966;2022-12-08T09:11:21;99652.34;;;5.33;83.02
32733;BME280;11867;51.198;11.966;2022-12-08T09:16:24;99644.84;;;6.44;80.33
32733;BME280;11867;51.198;11.966;2022-12-08T09:21:26;99646.69;;;6.03;80.29
32733;BME280;11867;51.198;11.966;2022-12-08T09:26:30;99634.53;;;6.26;79.30
32733;BME280;11867;51.198;11.966;2022-12-08T09:31:33;99634.84;;;6.55;78.72
32733;BME280;11867;51.198;11.966;2022-12-08T09:36:35;99636.47;;;5.47;81.36
32733;BME280;11867;51.198;11.966;2022-12-08T09:41:42;99630.91;;;5.84;80.59
32733;BME280;11867;51.198;11.966;2022-12-08T09:46:49;99619.66;;;6.34;79.79
32733;BME280;11867;51.198;11.966;2022-12-08T09:51:53;99622.66;;;6.37;78.35
32733;BME280;11867;51.198;11.966;2022-12-08T09:56:57;99618.50;;;7.12;77.60
32733;BME280;11867;51.198;11.966;2022-12-08T10:02:05;99609.63;;;6.70;77.48
32733;BME280;11867;51.198;11.966;2022-12-08T10:07:11;99607.28;;;7.39;74.90
32733;BME280;11867;51.198;11.966;2022-12-08T10:12:19;99610.72;;;7.65;75.18
32733;BME280;11867;51.198;11.966;2022-12-08T10:17:23;99600.16;;;6.73;75.47
32733;BME280;11867;51.198;11.966;2022-12-08T10:22:30;99599.34;;;6.11;79.11
32733;BME280;11867;51.198;11.966;2022-12-08T10:27:34;99603.97;;;6.51;77.67
32733;BME280;11867;51.198;11.966;2022-12-08T10:32:37;99595.00;;;6.10;79.65
32733;BME280;11867;51.198;11.966;2022-12-08T10:37:40;99589.59;;;6.20;79.93
32733;BME280;11867;51.198;11.966;2022-12-08T10:42:45;99581.75;;;5.98;80.93
32733;BME280;11867;51.198;11.966;2022-12-08T10:47:54;99588.28;;;6.43;78.67
32733;BME280;11867;51.198;11.966;2022-12-08T10:52:58;99583.38;;;6.30;79.00
32733;BME280;11867;51.198;11.966;2022-12-08T10:58:02;99574.66;;;5.86;80.50
32733;BME280;11867;51.198;11.966;2022-12-08T11:03:05;99566.06;;;6.00;80.45
32733;BME280;11867;51.198;11.966;2022-12-08T11:08:07;99560.63;;;5.95;80.14
32733;BME280;11867;51.198;11.966;2022-12-08T11:13:17;99563.34;;;6.36;78.43
32733;BME280;11867;51.198;11.966;2022-12-08T11:18:22;99555.25;;;6.41;78.15
32733;BME280;11867;51.198;11.966;2022-12-08T11:23:27;99549.78;;;6.56;77.54
32733;BME280;11867;51.198;11.966;2022-12-08T11:28:31;99546.03;;;6.21;78.02
32733;BME280;11867;51.198;11.966;2022-12-08T11:33:34;99542.50;;;6.11;78.38
32733;BME280;11867;51.198;11.966;2022-12-08T11:38:38;99539.00;;;6.41;77.79
32733;BME280;11867;51.198;11.966;2022-12-08T11:43:44;99537.59;;;6.59;77.66
32733;BME280;11867;51.198;11.966;2022-12-08T11:48:50;99534.91;;;6.38;77.10
32733;BME280;11867;51.198;11.966;2022-12-08T11:53:59;99530.28;;;6.54;76.88
32733;BME280;11867;51.198;11.966;2022-12-08T11:59:09;99530.25;;;5.62;79.88
32733;BME280;11867;51.198;11.966;2022-12-08T12:04:16;99526.81;;;6.07;78.66
32733;BME280;11867;51.198;11.966;2022-12-08T12:09:22;99530.56;;;6.42;77.60
32733;BME280;11867;51.198;11.966;2022-12-08T12:14:37;99527.59;;;5.93;78.21
32733;BME280;11867;51.198;11.966;2022-12-08T12:19:47;99524.88;;;5.93;78.74
32733;BME280;11867;51.198;11.966;2022-12-08T12:24:49;99527.09;;;6.37;77.30
32733;BME280;11867;51.198;11.966;2022-12-08T12:29:55;99516.44;;;6.76;76.54
32733;BME280;11867;51.198;11.966;2022-12-08T12:35:00;99516.22;;;9.75;68.39
32733;BME280;11867;51.198;11.966;2022-12-08T12:40:03;99515.84;;;8.23;69.17
32733;BME280;11867;51.198;11.966;2022-12-08T12:45:29;99510.94;;;8.25;70.42
32733;BME280;11867;51.198;11.966;2022-12-08T12:50:39;99509.97;;;8.11;71.55
32733;BME280;11867;51.198;11.966;2022-12-08T12:55:53;99512.00;;;7.56;73.90
32733;BME280;11867;51.198;11.966;2022-12-08T13:06:20;99500.81;;;7.62;73.89
32733;BME280;11867;51.198;11.966;2022-12-08T13:11:23;99494.09;;;8.23;72.96
32733;BME280;11867;51.198;11.966;2022-12-08T13:16:26;99489.97;;;7.62;73.08
32733;BME280;11867;51.198;11.966;2022-12-08T13:21:34;99486.91;;;7.30;74.18
32733;BME280;11867;51.198;11.966;2022-12-08T13:26:42;99488.69;;;7.50;73.51
32733;BME280;11867;51.198;11.966;2022-12-08T13:31:46;99478.88;;;7.59;73.71
32733;BME280;11867;51.198;11.966;2022-12-08T13:36:56;99476.16;;;7.14;75.55
32733;BME280;11867;51.198;11.966;2022-12-08T13:42:03;99483.13;;;7.31;75.59
32733;BME280;11867;51.198;11.966;2022-12-08T13:47:09;99478.50;;;7.31;75.73
32733;BME280;11867;51.198;11.966;2022-12-08T13:52:34;99478.25;;;7.72;74.90
32733;BME280;11867;51.198;11.966;2022-12-08T13:57:57;99490.72;;;6.69;77.40
32733;BME280;11867;51.198;11.966;2022-12-08T14:03:00;99490.91;;;6.87;77.00
32733;BME280;11867;51.198;11.966;2022-12-08T14:08:04;99493.97;;;6.65;77.06
32733;BME280;11867;51.198;11.966;2022-12-08T14:13:10;99494.59;;;6.26;79.31
32733;BME280;11867;51.198;11.966;2022-12-08T14:18:23;99489.31;;;6.81;78.09
32733;BME280;11867;51.198;11.966;2022-12-08T14:23:27;99492.41;;;6.39;78.83
32733;BME280;11867;51.198;11.966;2022-12-08T14:28:30;99496.75;;;6.40;79.35
32733;BME280;11867;51.198;11.966;2022-12-08T14:33:32;99494.59;;;6.32;79.64
32733;BME280;11867;51.198;11.966;2022-12-08T14:38:36;99498.88;;;6.48;78.06
32733;BME280;11867;51.198;11.966;2022-12-08T14:43:39;99501.91;;;6.16;79.23
32733;BME280;11867;51.198;11.966;2022-12-08T14:48:43;99503.78;;;6.25;79.55
32733;BME280;11867;51.198;11.966;2022-12-08T14:53:50;99510.84;;;6.11;79.76
32733;BME280;11867;51.198;11.966;2022-12-08T14:59:01;99505.44;;;6.11;80.30
32733;BME280;11867;51.198;11.966;2022-12-08T15:04:06;99506.78;;;6.09;80.06
32733;BME280;11867;51.198;11.966;2022-12-08T15:09:15;99502.97;;;6.10;80.17
32733;BME280;11867;51.198;11.966;2022-12-08T15:14:29;99505.69;;;5.94;80.16
32733;BME280;11867;51.198;11.966;2022-12-08T15:19:32;99511.09;;;6.45;79.10
32733;BME280;11867;51.198;11.966;2022-12-08T15:24:36;99508.63;;;6.54;78.09
32733;BME280;11867;51.198;11.966;2022-12-08T15:29:41;99512.84;;;6.91;77.63
32733;BME280;11867;51.198;11.966;2022-12-08T15:34:43;99514.81;;;6.70;77.96
32733;BME280;11867;51.198;11.966;2022-12-08T15:39:48;99520.47;;;6.79;77.62
32733;BME280;11867;51.198;11.966;2022-12-08T15:44:50;99524.84;;;6.64;77.18
32733;BME280;11867;51.198;11.966;2022-12-08T15:49:53;99532.97;;;6.59;78.04
32733;BME280;11867;51.198;11.966;2022-12-08T15:54:56;99529.47;;;6.64;77.46
32733;BME280;11867;51.198;11.966;2022-12-08T15:59:59;99526.72;;;6.69;77.41
32733;BME280;11867;51.198;11.966;2022-12-08T16:05:02;99536.53;;;6.60;78.02
32733;BME280;11867;51.198;11.966;2022-12-08T16:10:25;99529.22;;;5.89;81.26
32733;BME280;11867;51.198;11.966;2022-12-08T16:15:48;99531.34;;;5.66;82.68
32733;BME280;11867;51.198;11.966;2022-12-08T16:21:00;99533.50;;;5.64;83.37
32733;BME280;11867;51.198;11.966;2022-12-08T16:26:24;99530.31;;;6.44;80.45
32733;BME280;11867;51.198;11.966;2022-12-08T16:31:48;99543.88;;;6.18;80.62
32733;BME280;11867;51.198;11.966;2022-12-08T16:36:52;99547.66;;;6.12;81.31
32733;BME280;11867;51.198;11.966;2022-12-08T16:41:55;99559.69;;;5.43;84.32
32733;BME280;11867;51.198;11.966;2022-12-08T16:47:16;99575.19;;;5.78;84.20
32733;BME280;11867;51.198;11.966;2022-12-08T16:52:18;99572.09;;;4.81;89.38
32733;BME280;11867;51.198;11.966;2022-12-08T16:57:22;99578.47;;;5.07;88.69
32733;BME280;11867;51.198;11.966;2022-12-08T17:02:24;99587.00;;;4.89;88.51
32733;BME280;11867;51.198;11.966;2022-12-08T17:07:27;99585.72;;;5.01;88.80
32733;BME280;11867;51.198;11.966;2022-12-08T17:12:31;99584.97;;;5.11;88.64
32733;BME280;11867;51.198;11.966;2022-12-08T17:17:35;99583.69;;;5.29;88.29
32733;BME280;11867;51.198;11.966;2022-12-08T17:22:39;99579.75;;;4.94;88.52
32733;BME280;11867;51.198;11.966;2022-12-08T17:27:43;99584.25;;;4.83;89.26
32733;BME280;11867;51.198;11.966;2022-12-08T17:32:45;99581.59;;;4.46;91.49
32733;BME280;11867;51.198;11.966;2022-12-08T17:37:48;99583.53;;;4.18;92.69
32733;BME280;11867;51.198;11.966;2022-12-08T17:42:52;99583.41;;;4.73;90.96
32733;BME280;11867;51.198;11.966;2022-12-08T17:47:54;99581.16;;;5.07;89.19
32733;BME280;11867;51.198;11.966;2022-12-08T17:52:57;99585.63;;;5.39;86.43
32733;BME280;11867;51.198;11.966;2022-12-08T17:58:01;99595.47;;;5.08;88.80
32733;BME280;11867;51.198;11.966;2022-12-08T18:03:03;99600.31;;;5.00;88.26
32733;BME280;11867;51.198;11.966;2022-12-08T18:08:06;99598.63;;;4.89;87.96
32733;BME280;11867;51.198;11.966;2022-12-08T18:13:11;99590.00;;;4.92;88.78
32733;BME280;11867;51.198;11.966;2022-12-08T18:18:13;99589.28;;;5.07;87.93
32733;BME280;11867;51.198;11.966;2022-12-08T18:23:16;99590.47;;;5.37;87.05
32733;BME280;11867;51.198;11.966;2022-12-08T18:28:20;99597.94;;;4.67;89.66
32733;BME280;11867;51.198;11.966;2022-12-08T18:33:23;99600.19;;;4.80;90.87
32733;BME280;11867;51.198;11.966;2022-12-08T18:38:26;99593.56;;;5.03;89.34
32733;BME280;11867;51.198;11.966;2022-12-08T18:43:30;99597.56;;;4.95;88.10
32733;BME280;11867;51.198;11.966;2022-12-08T18:48:32;99600.94;;;4.70;90.36
32733;BME280;11867;51.198;11.966;2022-12-08T18:53:35;99605.78;;;5.11;87.80
32733;BME280;11867;51.198;11.966;2022-12-08T18:58:39;99608.75;;;5.09;87.72
32733;BME280;11867;51.198;11.966;2022-12-08T19:03:42;99607.50;;;5.32;87.46
32733;BME280;11867;51.198;11.966;2022-12-08T19:09:04;99604.22;;;5.25;87.69
32733;BME280;11867;51.198;11.966;2022-12-08T19:14:08;99612.22;;;5.68;86.64
32733;BME280;11867;51.198;11.966;2022-12-08T19:19:11;99608.97;;;5.60;86.69
32733;BME280;11867;51.198;11.966;2022-12-08T19:24:13;99615.97;;;4.98;88.62
32733;BME280;11867;51.198;11.966;2022-12-08T19:29:17;99610.72;;;5.29;87.40
32733;BME280;11867;51.198;11.966;2022-12-08T19:34:20;99617.81;;;5.45;88.22
32733;BME280;11867;51.198;11.966;2022-12-08T19:39:22;99613.44;;;5.39;87.70
32733;BME280;11867;51.198;11.966;2022-12-08T19:44:45;99618.25;;;5.27;88.15
32733;BME280;11867;51.198;11.966;2022-12-08T19:49:53;99625.56;;;5.21;87.74
32733;BME280;11867;51.198;11.966;2022-12-08T19:55:19;99609.78;;;5.03;87.99
32733;BME280;11867;51.198;11.966;2022-12-08T20:00:23;99605.56;;;4.75;89.32
32733;BME280;11867;51.198;11.966;2022-12-08T20:05:25;99606.16;;;3.58;94.93
32733;BME280;11867;51.198;11.966;2022-12-08T20:10:31;99606.72;;;2.94;99.10
32733;BME280;11867;51.198;11.966;2022-12-08T20:15:35;99612.69;;;2.62;100.00
32733;BME280;11867;51.198;11.966;2022-12-08T20:20:38;99607.56;;;3.66;99.45
32733;BME280;11867;51.198;11.966;2022-12-08T20:25:41;99615.03;;;4.08;97.75
32733;BME280;11867;51.198;11.966;2022-12-08T20:30:52;99622.78;;;4.31;95.04
32733;BME280;11867;51.198;11.966;2022-12-08T20:35:57;99629.31;;;4.73;91.50
32733;BME280;11867;51.198;11.966;2022-12-08T20:41:00;99641.84;;;4.52;92.34
32733;BME280;11867;51.198;11.966;2022-12-08T20:46:07;99643.00;;;4.29;91.66
32733;BME280;11867;51.198;11.966;2022-12-08T20:51:11;99656.88;;;4.15;91.45
32733;BME280;11867;51.198;11.966;2022-12-08T20:56:14;99660.34;;;3.83;94.06
32733;BME280;11867;51.198;11.966;2022-12-08T21:01:19;99657.28;;;3.53;94.34
32733;BME280;11867;51.198;11.966;2022-12-08T21:06:27;99652.25;;;3.83;92.87
32733;BME280;11867;51.198;11.966;2022-12-08T21:11:30;99651.78;;;4.46;89.70
32733;BME280;11867;51.198;11.966;2022-12-08T21:16:36;99652.69;;;4.24;88.84
32733;BME280;11867;51.198;11.966;2022-12-08T21:21:40;99662.00;;;3.62;92.54
32733;BME280;11867;51.198;11.966;2022-12-08T21:26:43;99662.19;;;2.78;97.14
32733;BME280;11867;51.198;11.966;2022-12-08T21:31:47;99660.06;;;2.80;99.81
32733;BME280;11867;51.198;11.966;2022-12-08T21:36:52;99667.94;;;3.87;94.30
32733;BME280;11867;51.198;11.966;2022-12-08T21:41:54;99665.41;;;4.29;90.93
32733;BME280;11867;51.198;11.966;2022-12-08T21:47:16;99673.75;;;3.12;95.68
32733;BME280;11867;51.198;11.966;2022-12-08T21:52:19;99665.81;;;3.67;94.19
32733;BME280;11867;51.198;11.966;2022-12-08T21:57:23;99660.75;;;3.70;93.67
32733;BME280;11867;51.198;11.966;2022-12-08T22:02:27;99664.56;;;3.74;93.58
32733;BME280;11867;51.198;11.966;2022-12-08T22:07:30;99667.50;;;3.51;94.98
32733;BME280;11867;51.198;11.966;2022-12-08T22:12:33;99663.28;;;3.16;95.06
32733;BME280;11867;51.198;11.966;2022-12-08T22:17:37;99675.13;;;2.13;100.00
32733;BME280;11867;51.198;11.966;2022-12-08T22:22:41;99666.09;;;3.04;100.00
32733;BME280;11867;51.198;11.966;2022-12-08T22:27:43;99657.97;;;3.87;94.37
32733;BME280;11867;51.198;11.966;2022-12-08T22:32:47;99652.63;;;3.92;91.98
32733;BME280;11867;51.198;11.966;2022-12-08T22:37:50;99650.66;;;3.60;93.02
32733;BME280;11867;51.198;11.966;2022-12-08T22:42:57;99653.97;;;3.95;92.37
32733;BME280;11867;51.198;11.966;2022-12-08T22:48:02;99659.97;;;3.09;96.61
32733;BME280;11867;51.198;11.966;2022-12-08T22:53:06;99665.72;;;1.99;100.00
32733;BME280;11867;51.198;11.966;2022-12-08T22:58:10;99662.13;;;1.93;100.00
32733;BME280;11867;51.198;11.966;2022-12-08T23:03:14;99664.88;;;2.78;100.00
32733;BME280;11867;51.198;11.966;2022-12-08T23:08:17;99661.13;;;3.79;95.94
32733;BME280;11867;51.198;11.966;2022-12-08T23:13:19;99665.34;;;3.97;93.89
32733;BME280;11867;51.198;11.966;2022-12-08T23:18:26;99657.81;;;3.99;91.99
32733;BME280;11867;51.198;11.966;2022-12-08T23:23:28;99658.84;;;4.52;90.09
32733;BME280;11867;51.198;11.966;2022-12-08T23:28:31;99665.91;;;4.58;89.13
32733;BME280;11867;51.198;11.966;2022-12-08T23:33:35;99662.25;;;4.10;89.70
32733;BME280;11867;51.198;11.966;2022-12-08T23:38:40;99663.25;;;4.31;91.01
32733;BME280;11867;51.198;11.966;2022-12-08T23:43:44;99665.34;;;3.31;95.55
32733;BME280;11867;51.198;11.966;2022-12-08T23:48:48;99665.50;;;3.19;95.90
32733;BME280;11867;51.198;11.966;2022-12-08T23:53:51;99667.72;;;3.66;95.90
32733;BME280;11867;51.198;11.966;2022-12-08T23:58:54;99658.47;;;4.11;92.55
